createdAt,value
2017-06-28T00:00:54.368Z,15.69
2017-06-28T00:02:07.191Z,15.72
2017-06-28T00:03:19.716Z,15.8
2017-06-28T00:04:31.658Z,15.63
2017-06-28T00:05:44.205Z,15.72
2017-06-28T00:06:56.771Z,15.72
2017-06-28T00:08:09.013Z,15.67
2017-06-28T00:09:21.541Z,15.65
2017-06-28T00:10:34.090Z,15.59
2017-06-28T00:11:46.648Z,15.66
2017-06-28T00:12:58.924Z,15.66
2017-06-28T00:14:11.154Z,15.67
2017-06-28T00:15:23.699Z,15.62
2017-06-28T00:16:36.263Z,15.48
2017-06-28T00:17:48.802Z,15.59
2017-06-28T00:19:01.386Z,15.52
2017-06-28T00:20:13.634Z,15.48
2017-06-28T00:21:25.575Z,15.55
2017-06-28T00:22:38.112Z,15.52
2017-06-28T00:23:50.670Z,15.51
2017-06-28T00:25:03.217Z,15.51
2017-06-28T00:26:15.156Z,15.45
2017-06-28T00:27:27.406Z,15.41
2017-06-28T00:28:39.669Z,15.41
2017-06-28T00:29:52.227Z,15.35
2017-06-28T00:31:04.767Z,15.33
2017-06-28T00:32:17.329Z,15.39
2017-06-28T00:33:29.577Z,15.33
2017-06-28T00:34:41.810Z,15.43
2017-06-28T00:35:54.369Z,15.37
2017-06-28T00:37:06.922Z,15.43
2017-06-28T00:38:19.473Z,15.35
2017-06-28T00:39:32.325Z,15.33
2017-06-28T00:40:44.573Z,15.32
2017-06-28T00:41:57.130Z,15.23
2017-06-28T00:43:09.680Z,15.3
2017-06-28T00:44:22.251Z,15.3
2017-06-28T00:45:34.818Z,15.3
2017-06-28T00:46:47.378Z,15.33
2017-06-28T00:47:59.637Z,15.35
2017-06-28T00:49:12.253Z,15.26
2017-06-28T00:50:24.502Z,15.32
2017-06-28T00:51:37.052Z,15.22
2017-06-28T00:52:49.315Z,15.29
2017-06-28T00:54:01.878Z,15.22
2017-06-28T00:55:13.808Z,15.3
2017-06-28T00:56:26.329Z,15.19
2017-06-28T00:57:38.881Z,15.22
2017-06-28T00:58:51.424Z,15.18
2017-06-28T01:00:03.673Z,15.14
2017-06-28T01:01:16.193Z,15.19
2017-06-28T01:02:28.455Z,15.14
2017-06-28T01:03:41.003Z,15.17
2017-06-28T01:04:53.575Z,15.08
2017-06-28T01:06:06.128Z,15.15
2017-06-28T01:07:18.367Z,15.15
2017-06-28T01:08:30.937Z,15.07
2017-06-28T01:09:43.464Z,15.12
2017-06-28T01:10:56.008Z,15.11
2017-06-28T01:12:08.554Z,15.05
2017-06-28T01:13:20.787Z,15.07
2017-06-28T01:14:33.048Z,15.11
2017-06-28T01:15:45.596Z,15.05
2017-06-28T01:16:57.863Z,15.04
2017-06-28T01:18:10.432Z,15.04
2017-06-28T01:19:22.983Z,15.1
2017-06-28T01:20:35.535Z,15.05
2017-06-28T01:21:48.095Z,15.04
2017-06-28T01:23:00.630Z,15.08
2017-06-28T01:24:13.151Z,14.99
2017-06-28T01:25:25.758Z,15.04
2017-06-28T01:26:38.333Z,15.07
2017-06-28T01:27:50.597Z,15.02
2017-06-28T01:29:02.868Z,15.04
2017-06-28T01:30:15.396Z,15
2017-06-28T01:31:27.666Z,14.97
2017-06-28T01:32:39.914Z,15.04
2017-06-28T01:33:52.172Z,15.02
2017-06-28T01:35:04.722Z,15
2017-06-28T01:36:17.228Z,14.97
2017-06-28T01:37:29.472Z,14.92
2017-06-28T01:38:41.732Z,14.89
2017-06-28T01:39:53.968Z,14.87
2017-06-28T01:41:06.535Z,14.93
2017-06-28T01:42:19.107Z,14.89
2017-06-28T01:43:31.672Z,14.9
2017-06-28T01:44:44.233Z,14.9
2017-06-28T01:45:56.785Z,14.96
2017-06-28T01:47:08.989Z,14.87
2017-06-28T01:48:21.559Z,14.87
2017-06-28T01:49:34.102Z,14.87
2017-06-28T01:50:46.672Z,14.79
2017-06-28T01:51:59.243Z,14.78
2017-06-28T01:53:11.801Z,14.78
2017-06-28T01:54:24.038Z,14.82
2017-06-28T01:55:36.307Z,14.85
2017-06-28T01:56:48.841Z,14.82
2017-06-28T01:58:01.374Z,14.73
2017-06-28T01:59:13.911Z,14.82
2017-06-28T02:00:26.154Z,14.81
2017-06-28T02:01:38.710Z,14.79
2017-06-28T02:02:50.950Z,14.87
2017-06-28T02:04:03.528Z,14.82
2017-06-28T02:05:15.471Z,14.82
2017-06-28T02:06:28.020Z,14.78
2017-06-28T02:07:40.562Z,14.74
2017-06-28T02:08:53.133Z,14.78
2017-06-28T02:10:05.374Z,14.81
2017-06-28T02:11:17.950Z,14.73
2017-06-28T02:12:30.479Z,14.82
2017-06-28T02:13:43.046Z,14.89
2017-06-28T02:14:55.281Z,14.73
2017-06-28T02:16:07.808Z,14.77
2017-06-28T02:17:19.757Z,14.85
2017-06-28T02:18:32.318Z,14.86
2017-06-28T02:19:44.876Z,14.78
2017-06-28T02:20:57.106Z,14.79
2017-06-28T02:22:09.659Z,14.71
2017-06-28T02:23:22.213Z,14.68
2017-06-28T02:24:34.759Z,14.66
2017-06-28T02:25:47.005Z,14.66
2017-06-28T02:26:59.575Z,14.61
2017-06-28T02:28:12.117Z,14.63
2017-06-28T02:29:24.346Z,14.66
2017-06-28T02:30:36.916Z,14.61
2017-06-28T02:31:49.485Z,14.66
2017-06-28T02:33:01.747Z,14.66
2017-06-28T02:34:14.329Z,14.63
2017-06-28T02:35:26.872Z,14.62
2017-06-28T02:36:39.092Z,14.71
2017-06-28T02:37:51.339Z,14.58
2017-06-28T02:39:03.889Z,14.62
2017-06-28T02:40:16.481Z,14.71
2017-06-28T02:41:29.035Z,14.59
2017-06-28T02:42:41.632Z,14.62
2017-06-28T02:43:54.165Z,14.59
2017-06-28T02:45:06.719Z,14.53
2017-06-28T02:46:19.285Z,14.59
2017-06-28T02:47:31.835Z,14.51
2017-06-28T02:48:44.383Z,14.61
2017-06-28T02:49:56.969Z,14.56
2017-06-28T02:51:09.525Z,14.55
2017-06-28T02:52:22.091Z,14.59
2017-06-28T02:53:34.624Z,14.49
2017-06-28T02:54:47.181Z,14.56
2017-06-28T02:55:59.456Z,14.59
2017-06-28T02:57:12.001Z,14.53
2017-06-28T02:58:24.518Z,14.56
2017-06-28T02:59:37.129Z,14.56
2017-06-28T03:00:49.917Z,14.59
2017-06-28T03:02:02.462Z,14.59
2017-06-28T03:03:14.123Z,14.59
2017-06-28T03:04:26.695Z,14.52
2017-06-28T03:05:39.237Z,14.55
2017-06-28T03:06:51.494Z,14.61
2017-06-28T03:08:04.062Z,14.52
2017-06-28T03:09:16.585Z,14.58
2017-06-28T03:10:29.141Z,14.51
2017-06-28T03:11:41.688Z,14.51
2017-06-28T03:12:54.249Z,14.59
2017-06-28T03:14:06.813Z,14.67
2017-06-28T03:15:19.350Z,14.66
2017-06-28T03:16:31.896Z,14.66
2017-06-28T03:17:44.462Z,14.74
2017-06-28T03:18:56.705Z,14.77
2017-06-28T03:20:08.668Z,14.78
2017-06-28T03:21:21.213Z,14.77
2017-06-28T03:22:34.069Z,14.82
2017-06-28T03:23:46.628Z,14.89
2017-06-28T03:24:58.874Z,14.93
2017-06-28T03:26:11.424Z,14.92
2017-06-28T03:27:23.675Z,14.93
2017-06-28T03:28:35.924Z,14.99
2017-06-28T03:29:48.460Z,15.02
2017-06-28T03:31:00.729Z,15.05
2017-06-28T03:32:13.230Z,15.04
2017-06-28T03:33:25.172Z,15.1
2017-06-28T03:34:37.725Z,15.14
2017-06-28T03:35:50.273Z,15.1
2017-06-28T03:37:02.830Z,15.18
2017-06-28T03:38:15.382Z,15.26
2017-06-28T03:39:28.222Z,15.29
2017-06-28T03:40:40.776Z,15.32
2017-06-28T03:41:53.321Z,15.32
2017-06-28T03:43:05.863Z,15.36
2017-06-28T03:44:18.682Z,15.32
2017-06-28T03:45:31.216Z,15.44
2017-06-28T03:46:43.747Z,15.39
2017-06-28T03:47:56.289Z,15.43
2017-06-28T03:49:08.850Z,15.5
2017-06-28T03:50:21.343Z,15.55
2017-06-28T03:51:33.889Z,15.48
2017-06-28T03:52:46.459Z,15.55
2017-06-28T03:53:59.023Z,15.63
2017-06-28T03:55:10.977Z,15.69
2017-06-28T03:56:23.518Z,15.66
2017-06-28T03:57:36.057Z,15.69
2017-06-28T03:58:48.589Z,15.67
2017-06-28T04:00:01.135Z,15.66
2017-06-28T04:01:13.706Z,15.72
2017-06-28T04:02:26.252Z,15.83
2017-06-28T04:03:38.777Z,15.83
2017-06-28T04:04:51.316Z,15.85
2017-06-28T04:06:03.838Z,15.76
2017-06-28T04:07:16.382Z,15.87
2017-06-28T04:08:28.626Z,15.98
2017-06-28T04:09:41.149Z,15.85
2017-06-28T04:10:53.399Z,15.96
2017-06-28T04:12:05.949Z,15.98
2017-06-28T04:13:18.196Z,15.9
2017-06-28T04:14:30.750Z,15.88
2017-06-28T04:15:43.284Z,15.92
2017-06-28T04:16:55.827Z,15.85
2017-06-28T04:18:08.337Z,15.92
2017-06-28T04:19:20.862Z,15.8
2017-06-28T04:20:33.133Z,15.85
2017-06-28T04:21:45.690Z,15.88
2017-06-28T04:22:57.953Z,15.83
2017-06-28T04:24:10.155Z,15.83
2017-06-28T04:25:22.771Z,15.87
2017-06-28T04:26:34.391Z,15.88
2017-06-28T04:27:46.973Z,15.81
2017-06-28T04:28:59.215Z,15.81
2017-06-28T04:30:11.475Z,15.72
2017-06-28T04:31:23.742Z,15.81
2017-06-28T04:32:36.304Z,15.78
2017-06-28T04:33:48.848Z,15.84
2017-06-28T04:35:01.069Z,15.83
2017-06-28T04:36:13.359Z,15.72
2017-06-28T04:37:25.625Z,15.75
2017-06-28T04:38:37.884Z,15.83
2017-06-28T04:39:50.139Z,15.87
2017-06-28T04:41:02.713Z,15.81
2017-06-28T04:42:15.292Z,15.76
2017-06-28T04:43:27.867Z,15.81
2017-06-28T04:44:40.123Z,15.8
2017-06-28T04:45:52.652Z,15.78
2017-06-28T04:47:05.207Z,15.78
2017-06-28T04:48:17.743Z,15.75
2017-06-28T04:49:30.318Z,15.81
2017-06-28T04:50:42.894Z,15.81
2017-06-28T04:51:55.426Z,15.75
2017-06-28T04:53:07.994Z,15.83
2017-06-28T04:54:20.556Z,15.76
2017-06-28T04:55:33.122Z,15.85
2017-06-28T04:56:45.636Z,15.81
2017-06-28T04:57:58.215Z,15.91
2017-06-28T04:59:10.752Z,15.87
2017-06-28T05:00:23.626Z,15.9
2017-06-28T05:01:35.873Z,15.87
2017-06-28T05:02:48.399Z,15.91
2017-06-28T05:04:00.949Z,15.96
2017-06-28T05:05:13.518Z,15.96
2017-06-28T05:06:25.765Z,15.92
2017-06-28T05:07:38.295Z,15.99
2017-06-28T05:08:50.845Z,15.99
2017-06-28T05:10:03.106Z,15.98
2017-06-28T05:11:15.665Z,16.05
2017-06-28T05:12:28.245Z,16.12
2017-06-28T05:13:40.515Z,16.22
2017-06-28T05:14:53.078Z,16.24
2017-06-28T05:16:05.645Z,16.32
2017-06-28T05:17:18.202Z,16.41
2017-06-28T05:18:30.164Z,16.39
2017-06-28T05:19:42.704Z,16.47
2017-06-28T05:20:55.287Z,16.65
2017-06-28T05:22:08.117Z,16.74
2017-06-28T05:23:20.680Z,16.87
2017-06-28T05:24:33.216Z,17.02
2017-06-28T05:25:45.770Z,17.04
2017-06-28T05:26:58.344Z,17.17
2017-06-28T05:28:10.889Z,17.3
2017-06-28T05:29:23.129Z,17.34
2017-06-28T05:30:35.383Z,17.42
2017-06-28T05:31:47.929Z,17.39
2017-06-28T05:33:00.191Z,17.54
2017-06-28T05:34:12.734Z,17.49
2017-06-28T05:35:25.267Z,17.53
2017-06-28T05:36:37.189Z,17.57
2017-06-28T05:37:49.735Z,17.57
2017-06-28T05:39:02.316Z,17.53
2017-06-28T05:40:14.867Z,17.66
2017-06-28T05:41:27.417Z,17.63
2017-06-28T05:42:39.663Z,17.65
2017-06-28T05:43:52.509Z,17.57
2017-06-28T05:45:04.753Z,17.66
2017-06-28T05:46:17.289Z,17.57
2017-06-28T05:47:29.821Z,17.6
2017-06-28T05:48:42.059Z,17.69
2017-06-28T05:49:54.612Z,17.69
2017-06-28T05:51:07.163Z,17.71
2017-06-28T05:52:19.106Z,17.72
2017-06-28T05:53:31.368Z,17.72
2017-06-28T05:54:43.898Z,17.72
2017-06-28T05:55:56.433Z,17.73
2017-06-28T05:57:08.990Z,17.71
2017-06-28T05:58:21.538Z,17.78
2017-06-28T05:59:34.106Z,17.84
2017-06-28T06:00:46.647Z,17.82
2017-06-28T06:01:59.201Z,17.88
2017-06-28T06:03:11.474Z,17.9
2017-06-28T06:04:24.014Z,17.93
2017-06-28T06:05:36.826Z,17.95
2017-06-28T06:06:49.386Z,18.06
2017-06-28T06:08:01.626Z,17.98
2017-06-28T06:09:14.165Z,18.06
2017-06-28T06:10:26.422Z,18.05
2017-06-28T06:11:38.940Z,18
2017-06-28T06:12:51.485Z,18.16
2017-06-28T06:14:04.053Z,18.15
2017-06-28T06:15:16.303Z,18.43
2017-06-28T06:16:28.879Z,18.31
2017-06-28T06:17:41.443Z,18.34
2017-06-28T06:18:54.019Z,18.39
2017-06-28T06:20:06.557Z,18.45
2017-06-28T06:21:19.088Z,18.66
2017-06-28T06:22:31.645Z,18.68
2017-06-28T06:23:43.599Z,18.89
2017-06-28T06:24:55.838Z,19.17
2017-06-28T06:26:08.387Z,19.39
2017-06-28T06:27:20.957Z,19.63
2017-06-28T06:28:33.210Z,19.92
2017-06-28T06:29:45.464Z,20.21
2017-06-28T06:30:57.998Z,20.66
2017-06-28T06:32:10.559Z,20.96
2017-06-28T06:33:23.116Z,21.2
2017-06-28T06:34:35.683Z,21.44
2017-06-28T06:35:48.208Z,21.68
2017-06-28T06:37:00.454Z,21.89
2017-06-28T06:38:13.001Z,22.16
2017-06-28T06:39:25.546Z,22.21
2017-06-28T06:40:37.795Z,22.38
2017-06-28T06:41:50.357Z,22.51
2017-06-28T06:43:02.601Z,22.8
2017-06-28T06:44:14.857Z,22.99
2017-06-28T06:45:27.426Z,23.34
2017-06-28T06:46:39.396Z,23.58
2017-06-28T06:47:51.669Z,23.86
2017-06-28T06:49:04.234Z,24.14
2017-06-28T06:50:16.512Z,24.38
2017-06-28T06:51:29.063Z,24.62
2017-06-28T06:52:41.622Z,24.85
2017-06-28T06:53:54.168Z,24.97
2017-06-28T06:55:06.709Z,25.21
2017-06-28T06:56:18.981Z,25.44
2017-06-28T06:57:31.533Z,25.81
2017-06-28T06:58:44.094Z,26.04
2017-06-28T06:59:56.657Z,26.29
2017-06-28T07:01:09.236Z,26.7
2017-06-28T07:02:21.497Z,26.92
2017-06-28T07:03:34.066Z,27.04
2017-06-28T07:04:46.634Z,27.19
2017-06-28T07:05:59.194Z,27.35
2017-06-28T07:07:11.469Z,27.6
2017-06-28T07:08:23.728Z,27.72
2017-06-28T07:09:36.293Z,27.93
2017-06-28T07:10:48.864Z,28.2
2017-06-28T07:12:01.465Z,28.12
2017-06-28T07:13:13.733Z,28.09
2017-06-28T07:14:26.302Z,28.22
2017-06-28T07:15:38.569Z,28.45
2017-06-28T07:16:50.511Z,28.67
2017-06-28T07:18:02.758Z,28.78
2017-06-28T07:19:15.015Z,29.05
2017-06-28T07:20:27.599Z,29.2
2017-06-28T07:21:39.873Z,29.35
2017-06-28T07:22:52.125Z,29.49
2017-06-28T07:24:04.666Z,29.58
2017-06-28T07:25:17.211Z,29.86
2017-06-28T07:26:29.482Z,29.96
2017-06-28T07:27:42.082Z,30.02
2017-06-28T07:28:54.345Z,30.11
2017-06-28T07:30:06.345Z,30.29
2017-06-28T07:31:18.591Z,30.32
2017-06-28T07:32:31.166Z,30.16
2017-06-28T07:33:43.414Z,30.17
2017-06-28T07:34:55.954Z,30.35
2017-06-28T07:36:08.560Z,30.33
2017-06-28T07:37:21.127Z,30.43
2017-06-28T07:38:33.125Z,30.43
2017-06-28T07:39:45.388Z,30.61
2017-06-28T07:40:57.937Z,30.76
2017-06-28T07:42:10.501Z,30.91
2017-06-28T07:43:22.475Z,31.11
2017-06-28T07:44:35.055Z,31.13
2017-06-28T07:45:47.626Z,31.18
2017-06-28T07:46:59.922Z,31.11
2017-06-28T07:48:12.183Z,30.89
2017-06-28T07:49:24.447Z,31.07
2017-06-28T07:50:37.017Z,31.08
2017-06-28T07:51:49.593Z,30.95
2017-06-28T07:53:01.864Z,31.05
2017-06-28T07:54:14.442Z,31.23
2017-06-28T07:55:26.085Z,31.48
2017-06-28T07:56:38.652Z,31.51
2017-06-28T07:57:51.230Z,31.6
2017-06-28T07:59:03.193Z,31.66
2017-06-28T08:00:15.439Z,31.52
2017-06-28T08:01:28.008Z,31.69
2017-06-28T08:02:39.981Z,31.42
2017-06-28T08:03:52.263Z,31.39
2017-06-28T08:05:04.854Z,31.42
2017-06-28T08:06:17.168Z,31.18
2017-06-28T08:07:29.448Z,31.44
2017-06-28T08:08:41.999Z,31.3
2017-06-28T08:09:54.281Z,31.32
2017-06-28T08:11:06.860Z,31.45
2017-06-28T08:12:19.130Z,31.62
2017-06-28T08:13:31.702Z,31.73
2017-06-28T08:14:44.012Z,31.73
2017-06-28T08:15:56.308Z,31.79
2017-06-28T08:17:08.580Z,32.02
2017-06-28T08:18:20.535Z,32.02
2017-06-28T08:19:32.799Z,32.09
2017-06-28T08:20:45.373Z,32.26
2017-06-28T08:21:57.654Z,32.48
2017-06-28T08:23:09.966Z,32.59
2017-06-28T08:24:22.234Z,32.39
2017-06-28T08:25:34.795Z,32.34
2017-06-28T08:26:46.762Z,32.35
2017-06-28T08:27:59.369Z,32.45
2017-06-28T08:29:11.345Z,32.05
2017-06-28T08:30:23.617Z,32.23
2017-06-28T08:31:35.887Z,32.15
2017-06-28T08:32:48.458Z,32.34
2017-06-28T08:34:00.736Z,32.51
2017-06-28T08:35:13.054Z,32.57
2017-06-28T08:36:25.320Z,32.73
2017-06-28T08:37:38.195Z,32.82
2017-06-28T08:38:50.792Z,32.88
2017-06-28T08:40:03.336Z,32.9
2017-06-28T08:41:15.604Z,32.76
2017-06-28T08:42:28.179Z,32.83
2017-06-28T08:43:40.725Z,32.91
2017-06-28T08:44:53.321Z,33.08
2017-06-28T08:46:05.591Z,33.23
2017-06-28T08:47:17.864Z,32.98
2017-06-28T08:48:30.450Z,32.95
2017-06-28T08:49:43.046Z,32.57
2017-06-28T08:50:55.331Z,32.42
2017-06-28T08:52:07.950Z,32.48
2017-06-28T08:53:20.221Z,32.51
2017-06-28T08:54:32.502Z,32.63
2017-06-28T08:55:45.076Z,32.66
2017-06-28T08:56:57.333Z,32.68
2017-06-28T08:58:09.925Z,32.75
2017-06-28T08:59:22.520Z,32.67
2017-06-28T09:00:34.812Z,32.64
2017-06-28T09:01:47.067Z,32.48
2017-06-28T09:02:59.355Z,32.45
2017-06-28T09:04:11.919Z,32.2
2017-06-28T09:05:24.180Z,32.34
2017-06-28T09:06:36.765Z,32.42
2017-06-28T09:07:49.044Z,32.38
2017-06-28T09:09:01.285Z,32.27
2017-06-28T09:10:13.838Z,32.38
2017-06-28T09:11:26.381Z,32.48
2017-06-28T09:12:38.969Z,32.72
2017-06-28T09:13:51.519Z,32.73
2017-06-28T09:15:03.507Z,32.88
2017-06-28T09:16:15.764Z,32.71
2017-06-28T09:17:27.740Z,32.86
2017-06-28T09:18:40.310Z,33.09
2017-06-28T09:19:52.908Z,33.15
2017-06-28T09:21:05.472Z,33.22
2017-06-28T09:22:17.745Z,33.13
2017-06-28T09:23:30.291Z,32.94
2017-06-28T09:24:42.882Z,32.85
2017-06-28T09:25:55.445Z,32.91
2017-06-28T09:27:07.748Z,33.05
2017-06-28T09:28:20.349Z,33.22
2017-06-28T09:29:32.623Z,33.2
2017-06-28T09:30:45.240Z,33.31
2017-06-28T09:31:57.815Z,33.35
2017-06-28T09:33:09.808Z,33.44
2017-06-28T09:34:22.356Z,33.54
2017-06-28T09:35:34.953Z,33.55
2017-06-28T09:36:47.520Z,33.7
2017-06-28T09:37:59.805Z,33.67
2017-06-28T09:39:11.762Z,33.88
2017-06-28T09:40:24.333Z,33.85
2017-06-28T09:41:36.600Z,33.61
2017-06-28T09:42:48.875Z,33.36
2017-06-28T09:44:01.475Z,33.4
2017-06-28T09:45:14.070Z,33.4
2017-06-28T09:46:26.315Z,33.42
2017-06-28T09:47:38.272Z,33.39
2017-06-28T09:48:50.850Z,33.51
2017-06-28T09:50:02.821Z,33.58
2017-06-28T09:51:15.387Z,33.53
2017-06-28T09:52:27.357Z,33.67
2017-06-28T09:53:39.969Z,33.79
2017-06-28T09:54:52.580Z,33.88
2017-06-28T09:56:04.552Z,33.97
2017-06-28T09:57:17.122Z,34.02
2017-06-28T09:58:29.402Z,34.19
2017-06-28T09:59:41.964Z,34.32
2017-06-28T10:00:54.230Z,34.48
2017-06-28T10:02:06.806Z,34.51
2017-06-28T10:03:19.434Z,34.48
2017-06-28T10:04:31.724Z,34.55
2017-06-28T10:05:44.298Z,34.66
2017-06-28T10:06:56.271Z,34.59
2017-06-28T10:08:08.860Z,34.78
2017-06-28T10:09:21.448Z,34.96
2017-06-28T10:10:33.448Z,35.04
2017-06-28T10:11:45.707Z,35.18
2017-06-28T10:12:57.675Z,34.86
2017-06-28T10:14:10.242Z,34.98
2017-06-28T10:15:22.519Z,34.89
2017-06-28T10:16:35.109Z,34.63
2017-06-28T10:17:47.406Z,34.48
2017-06-28T10:19:00.023Z,34.44
2017-06-28T10:20:12.616Z,33.97
2017-06-28T10:21:25.144Z,33.97
2017-06-28T10:22:37.415Z,33.94
2017-06-28T10:23:50.035Z,33.61
2017-06-28T10:25:02.608Z,33.6
2017-06-28T10:26:14.870Z,33.36
2017-06-28T10:27:27.475Z,33.33
2017-06-28T10:28:40.049Z,33.13
2017-06-28T10:29:52.642Z,33
2017-06-28T10:31:05.232Z,33.23
2017-06-28T10:32:16.903Z,33.09
2017-06-28T10:33:28.582Z,32.97
2017-06-28T10:34:41.129Z,33.09
2017-06-28T10:35:53.708Z,33.15
2017-06-28T10:37:06.284Z,33.2
2017-06-28T10:38:18.871Z,33.17
2017-06-28T10:39:30.528Z,33.26
2017-06-28T10:40:42.826Z,33.32
2017-06-28T10:41:54.521Z,33.2
2017-06-28T10:43:07.095Z,32.97
2017-06-28T10:44:19.667Z,33.15
2017-06-28T10:45:32.209Z,33.28
2017-06-28T10:46:44.837Z,33.22
2017-06-28T10:47:57.105Z,33.13
2017-06-28T10:49:09.663Z,33.08
2017-06-28T10:50:22.219Z,33.01
2017-06-28T10:51:34.496Z,32.98
2017-06-28T10:52:46.784Z,33.23
2017-06-28T10:53:59.050Z,33.4
2017-06-28T10:55:11.626Z,33.67
2017-06-28T10:56:24.188Z,34
2017-06-28T10:57:36.466Z,34.24
2017-06-28T10:58:49.060Z,34.48
2017-06-28T11:00:01.294Z,34.55
2017-06-28T11:01:13.855Z,34.6
2017-06-28T11:02:26.118Z,34.58
2017-06-28T11:03:38.404Z,34.59
2017-06-28T11:04:50.673Z,34.83
2017-06-28T11:06:03.205Z,34.97
2017-06-28T11:07:15.485Z,35.12
2017-06-28T11:08:28.078Z,35.27
2017-06-28T11:09:40.382Z,35.47
2017-06-28T11:10:52.928Z,35.57
2017-06-28T11:12:05.486Z,35.63
2017-06-28T11:13:17.773Z,35.69
2017-06-28T11:14:30.389Z,35.78
2017-06-28T11:15:42.962Z,35.68
2017-06-28T11:16:55.258Z,35.68
2017-06-28T11:18:07.815Z,35.72
2017-06-28T11:19:20.091Z,35.82
2017-06-28T11:20:32.677Z,35.69
2017-06-28T11:21:45.313Z,35.63
2017-06-28T11:22:57.536Z,35.57
2017-06-28T11:24:10.098Z,35.53
2017-06-28T11:25:22.648Z,35.16
2017-06-28T11:26:34.919Z,35.1
2017-06-28T11:27:47.185Z,35.19
2017-06-28T11:28:59.465Z,34.7
2017-06-28T11:30:11.760Z,34.65
2017-06-28T11:31:24.574Z,34.56
2017-06-28T11:32:37.145Z,34.35
2017-06-28T11:33:49.712Z,34.11
2017-06-28T11:35:01.695Z,33.95
2017-06-28T11:36:14.251Z,33.77
2017-06-28T11:37:26.815Z,33.87
2017-06-28T11:38:39.395Z,34.04
2017-06-28T11:39:51.699Z,34.25
2017-06-28T11:41:04.280Z,34.32
2017-06-28T11:42:17.125Z,34.47
2017-06-28T11:43:29.720Z,34.6
2017-06-28T11:44:42.283Z,34.73
2017-06-28T11:45:54.850Z,34.78
2017-06-28T11:47:07.453Z,34.79
2017-06-28T11:48:20.018Z,34.93
2017-06-28T11:49:32.609Z,34.88
2017-06-28T11:50:45.213Z,34.83
2017-06-28T11:51:57.818Z,34.83
2017-06-28T11:53:10.409Z,35.08
2017-06-28T11:54:23.005Z,35.22
2017-06-28T11:55:35.271Z,35.35
2017-06-28T11:56:47.866Z,35.57
2017-06-28T11:58:00.122Z,35.82
2017-06-28T11:59:12.414Z,35.79
2017-06-28T12:00:25.034Z,35.54
2017-06-28T12:01:37.326Z,35.35
2017-06-28T12:02:49.901Z,35.2
2017-06-28T12:04:02.470Z,35.5
2017-06-28T12:05:15.042Z,35.68
2017-06-28T12:06:27.610Z,35.68
2017-06-28T12:07:40.183Z,35.81
2017-06-28T12:08:52.432Z,35.84
2017-06-28T12:10:04.393Z,35.98
2017-06-28T12:11:16.939Z,36.22
2017-06-28T12:12:29.209Z,36.63
2017-06-28T12:13:41.464Z,36.7
2017-06-28T12:14:53.403Z,36.76
2017-06-28T12:16:05.945Z,36.66
2017-06-28T12:17:18.542Z,36.5
2017-06-28T12:18:30.515Z,36.63
2017-06-28T12:19:43.101Z,36.69
2017-06-28T12:20:55.356Z,36.62
2017-06-28T12:22:07.627Z,36.31
2017-06-28T12:23:20.203Z,36.05
2017-06-28T12:24:32.488Z,35.91
2017-06-28T12:25:45.062Z,35.96
2017-06-28T12:26:57.042Z,35.84
2017-06-28T12:28:09.607Z,35.69
2017-06-28T12:29:21.865Z,35.35
2017-06-28T12:30:34.428Z,35.23
2017-06-28T12:31:46.727Z,35.19
2017-06-28T12:32:58.702Z,35.15
2017-06-28T12:34:10.661Z,35.19
2017-06-28T12:35:23.245Z,35.31
2017-06-28T12:36:35.517Z,35.16
2017-06-28T12:37:48.078Z,35.37
2017-06-28T12:39:00.367Z,35.27
2017-06-28T12:40:12.946Z,35.32
2017-06-28T12:41:25.221Z,35.5
2017-06-28T12:42:37.789Z,35.64
2017-06-28T12:43:50.411Z,35.72
2017-06-28T12:45:02.982Z,35.69
2017-06-28T12:46:15.278Z,35.61
2017-06-28T12:47:27.845Z,35.63
2017-06-28T12:48:40.142Z,35.45
2017-06-28T12:49:52.719Z,35.52
2017-06-28T12:51:05.212Z,35.6
2017-06-28T12:52:17.501Z,35.64
2017-06-28T12:53:29.770Z,35.59
2017-06-28T12:54:42.329Z,35.63
2017-06-28T12:55:54.950Z,35.54
2017-06-28T12:57:07.267Z,35.37
2017-06-28T12:58:20.112Z,35.31
2017-06-28T12:59:32.700Z,35.34
2017-06-28T13:00:45.296Z,35.25
2017-06-28T13:01:57.267Z,35.05
2017-06-28T13:03:09.826Z,35.03
2017-06-28T13:04:22.394Z,34.82
2017-06-28T13:05:34.639Z,34.79
2017-06-28T13:06:47.201Z,34.73
2017-06-28T13:07:59.491Z,34.55
2017-06-28T13:09:11.450Z,34.47
2017-06-28T13:10:24.018Z,34.43
2017-06-28T13:11:36.588Z,34.09
2017-06-28T13:12:48.864Z,33.98
2017-06-28T13:14:01.406Z,33.94
2017-06-28T13:15:13.668Z,33.89
2017-06-28T13:16:25.952Z,33.77
2017-06-28T13:17:37.617Z,33.79
2017-06-28T13:18:49.889Z,33.66
2017-06-28T13:20:02.469Z,33.58
2017-06-28T13:21:15.056Z,33.53
2017-06-28T13:22:27.307Z,33.38
2017-06-28T13:23:39.843Z,33.4
2017-06-28T13:24:52.423Z,33.31
2017-06-28T13:26:04.717Z,33.22
2017-06-28T13:27:16.681Z,33.1
2017-06-28T13:28:28.936Z,33.01
2017-06-28T13:29:41.181Z,32.95
2017-06-28T13:30:53.731Z,32.73
2017-06-28T13:32:06.294Z,32.54
2017-06-28T13:33:18.863Z,32.48
2017-06-28T13:34:31.141Z,32.26
2017-06-28T13:35:43.729Z,32.01
2017-06-28T13:36:56.306Z,31.73
2017-06-28T13:38:08.595Z,31.66
2017-06-28T13:39:20.858Z,31.45
2017-06-28T13:40:33.433Z,31.17
2017-06-28T13:41:45.679Z,31.05
2017-06-28T13:42:57.959Z,30.81
2017-06-28T13:44:10.236Z,30.56
2017-06-28T13:45:22.225Z,30.46
2017-06-28T13:46:34.773Z,30.32
2017-06-28T13:47:47.321Z,30.17
2017-06-28T13:48:58.984Z,30.01
2017-06-28T13:50:11.525Z,29.77
2017-06-28T13:51:24.087Z,29.68
2017-06-28T13:52:36.626Z,29.44
2017-06-28T13:53:48.889Z,29.25
2017-06-28T13:55:00.842Z,28.97
2017-06-28T13:56:13.120Z,28.71
2017-06-28T13:57:25.683Z,28.6
2017-06-28T13:59:07.482Z,28.27
2017-06-28T14:00:19.757Z,28.08
2017-06-28T14:01:32.019Z,27.76
2017-06-28T14:02:44.558Z,27.33
2017-06-28T14:03:57.115Z,26.88
2017-06-28T14:05:09.390Z,26.53
2017-06-28T14:06:21.934Z,26.23
2017-06-28T14:07:34.475Z,25.73
2017-06-28T14:08:47.040Z,25.48
2017-06-28T14:09:59.302Z,25.24
2017-06-28T14:11:11.542Z,24.79
2017-06-28T14:12:24.085Z,24.62
2017-06-28T14:13:36.651Z,24.46
2017-06-28T14:14:49.209Z,24.13
2017-06-28T14:16:01.764Z,23.92
2017-06-28T14:17:14.313Z,23.56
2017-06-28T14:18:26.866Z,23.45
2017-06-28T14:19:39.461Z,23.23
2017-06-28T14:20:51.697Z,23.17
2017-06-28T14:22:04.251Z,22.95
2017-06-28T14:23:16.555Z,22.77
2017-06-28T14:24:28.864Z,22.7
2017-06-28T14:25:41.393Z,22.61
2017-06-28T14:26:53.976Z,22.52
2017-06-28T14:28:05.934Z,22.46
2017-06-28T14:29:18.180Z,22.33
2017-06-28T14:30:30.123Z,22.36
2017-06-28T14:31:42.685Z,22.18
2017-06-28T14:32:54.976Z,22.28
2017-06-28T14:34:07.530Z,22.14
2017-06-28T14:35:19.781Z,22.1
2017-06-28T14:36:32.022Z,22.14
2017-06-28T14:37:44.582Z,22.06
2017-06-28T14:38:56.552Z,22.12
2017-06-28T14:40:08.514Z,22.04
2017-06-28T14:41:21.065Z,22.04
2017-06-28T14:42:33.635Z,22.04
2017-06-28T14:43:46.184Z,22
2017-06-28T14:44:58.752Z,22.1
2017-06-28T14:46:10.393Z,22.04
2017-06-28T14:47:22.643Z,22.04
2017-06-28T14:48:34.914Z,22.16
2017-06-28T14:49:47.486Z,22.1
2017-06-28T14:51:00.024Z,22.1
2017-06-28T14:52:12.596Z,22.15
2017-06-28T14:53:24.870Z,22.07
2017-06-28T14:54:37.411Z,22.16
2017-06-28T14:55:49.973Z,22.14
2017-06-28T14:57:01.927Z,22.12
2017-06-28T14:58:14.776Z,22.07
2017-06-28T14:59:26.749Z,22.07
2017-06-28T15:00:39.005Z,22.12
2017-06-28T15:01:51.548Z,22.04
2017-06-28T15:03:03.807Z,22.06
2017-06-28T15:04:16.364Z,22.06
2017-06-28T15:05:28.907Z,22.04
2017-06-28T15:06:41.453Z,22.04
2017-06-28T15:07:53.987Z,22.12
2017-06-28T15:09:06.569Z,22.1
2017-06-28T15:10:19.154Z,22.23
2017-06-28T15:11:31.729Z,22.23
2017-06-28T15:12:44.308Z,22.36
2017-06-28T15:13:56.876Z,22.31
2017-06-28T15:15:09.450Z,22.43
2017-06-28T15:16:21.417Z,22.56
2017-06-28T15:17:33.962Z,22.63
2017-06-28T15:18:45.926Z,22.68
2017-06-28T15:19:58.200Z,22.67
2017-06-28T15:21:10.767Z,22.77
2017-06-28T15:22:22.418Z,22.78
2017-06-28T15:23:34.963Z,22.78
2017-06-28T15:24:47.230Z,22.77
2017-06-28T15:25:59.180Z,22.77
2017-06-28T15:27:11.466Z,22.77
2017-06-28T15:28:23.126Z,22.77
2017-06-28T15:29:35.724Z,22.81
2017-06-28T15:30:48.328Z,22.7
2017-06-28T15:32:00.889Z,22.58
2017-06-28T15:33:13.462Z,22.58
2017-06-28T15:34:25.722Z,22.46
2017-06-28T15:35:38.286Z,22.49
2017-06-28T15:36:50.842Z,22.4